Pena Blanca, New Mexico
Current Conditions -  °F | °C
As of 4:53 PM on Friday 24 Oct 2014 (Local Time) from KSAF Reporting Station
Clear Clear  
Wind Chill: 24°   Ceiling: Unl
Heat Index: 24°   Visibility: 10mi
Dew Point: -3°   Wind: 8mph
Humidity: 16%   Direction: 290°WNW
Pressure: 30.28"   Gusts: NA
Location:  35.57°N, 106.34°W
Report Text: KSAF 242253Z AUTO 29007KT 10SM CLR 24/M03 A3028 RMK AO2 SLP172 T02441033
Loading
Personal Weather Stations






























Interactive Weather Map
Tropical Storm Tracking
New forecast layout! Learn more

10-Day Weather Forecast

Advertisements
Track Severe Weather on mobile